Time;durP1;ratioP1;P1;durP2;ratioP2;P2;SDS_P1;SDS_P2;PMS_P1;PMS_P2;Temp;Humidity;BMP_temperature;BMP_pressure;BME280_temperature;BME280_humidity;BME280_pressure;Samples;Min_cycle;Max_cycle;Signal;HPM_P1;HPM_P2
2022/06/17 00:00:12;;;;;;;8.07;5.95;;;13.80;99.90;;;;;;5118140;28;20164;-86
2022/06/17 00:02:38;;;;;;;8.10;5.57;;;13.80;99.90;;;;;;5110898;28;20048;-86
2022/06/17 00:05:04;;;;;;;8.50;5.78;;;13.80;99.90;;;;;;5092712;28;20040;-85
2022/06/17 00:07:29;;;;;;;8.75;5.88;;;13.70;99.90;;;;;;5108128;28;20054;-86
2022/06/17 00:09:55;;;;;;;6.95;4.90;;;13.70;99.90;;;;;;5108887;28;20048;-86
2022/06/17 00:12:21;;;;;;;8.82;6.00;;;13.70;99.90;;;;;;5109285;28;20081;-86
2022/06/17 00:17:30;;;;;;;10.20;6.13;;;13.60;99.90;;;;;;5110299;28;20055;-86
2022/06/17 00:19:56;;;;;;;7.43;5.55;;;13.60;99.90;;;;;;5090512;28;20046;-86
2022/06/17 00:22:22;;;;;;;9.50;6.13;;;13.70;99.90;;;;;;5108964;28;20135;-86
2022/06/17 00:24:50;;;;;;;10.30;5.85;;;13.50;99.90;;;;;;5108374;28;20455;-86
2022/06/17 00:27:16;;;;;;;11.70;6.40;;;13.50;99.90;;;;;;5107999;28;20054;-85
2022/06/17 00:29:42;;;;;;;7.45;5.88;;;13.50;99.90;;;;;;5108663;28;20130;-86
2022/06/17 00:32:07;;;;;;;11.70;6.40;;;13.50;99.90;;;;;;5108147;28;20052;-86
2022/06/17 00:34:33;;;;;;;12.00;7.90;;;13.50;99.90;;;;;;5108664;28;20082;-86
2022/06/17 00:37:01;;;;;;;10.27;7.60;;;13.50;99.90;;;;;;5107699;28;20039;-86
2022/06/17 00:39:33;;;;;;;11.55;6.57;;;13.50;99.90;;;;;;5108897;28;20169;-86
2022/06/17 00:42:08;;;;;;;7.97;6.13;;;13.40;99.90;;;;;;5107776;28;20062;-86
2022/06/17 00:44:53;;;;;;;13.10;7.78;;;13.40;99.90;;;;;;5107760;28;20044;-87
2022/06/17 00:47:30;;;;;;;10.35;7.07;;;13.40;99.90;;;;;;5108709;28;20051;-86
2022/06/17 00:50:13;;;;;;;15.32;6.80;;;13.40;99.90;;;;;;5107323;28;20445;-86
2022/06/17 00:52:50;;;;;;;8.90;7.00;;;13.30;99.90;;;;;;5108604;28;20439;-87
2022/06/17 00:55:27;;;;;;;12.95;8.52;;;13.30;99.90;;;;;;5109696;28;20369;-88
2022/06/17 00:57:53;;;;;;;10.27;6.95;;;13.30;99.90;;;;;;5107284;28;20054;-87
2022/06/17 01:00:21;;;;;;;12.05;8.38;;;13.40;99.90;;;;;;5108478;28;20040;-86
2022/06/17 01:02:54;;;;;;;8.93;7.32;;;13.40;99.90;;;;;;5107064;28;20059;-86
2022/06/17 01:05:26;;;;;;;11.30;8.18;;;13.30;99.90;;;;;;5108211;28;20391;-85
2022/06/17 01:08:01;;;;;;;13.18;8.40;;;13.40;99.90;;;;;;5107550;28;20039;-85
2022/06/17 01:10:28;;;;;;;10.60;7.75;;;13.50;99.90;;;;;;5108518;28;20039;-86
2022/06/17 01:13:06;;;;;;;10.85;8.13;;;13.60;99.90;;;;;;5107883;28;20048;-86
2022/06/17 01:15:35;;;;;;;11.52;8.32;;;13.70;99.90;;;;;;5108001;28;20043;-86
2022/06/17 01:18:01;;;;;;;11.77;7.47;;;13.70;99.90;;;;;;5107630;28;20118;-86
2022/06/17 01:20:29;;;;;;;15.07;8.55;;;14.00;99.90;;;;;;5073016;28;20032;-86
2022/06/17 01:22:58;;;;;;;13.25;8.88;;;13.90;99.90;;;;;;5107714;28;20438;-85
2022/06/17 01:25:26;;;;;;;14.32;8.60;;;15.00;99.90;;;;;;5107606;28;20629;-86
2022/06/17 01:28:02;;;;;;;10.57;7.40;;;15.10;99.90;;;;;;5106527;28;20051;-86
2022/06/17 01:30:44;;;;;;;16.75;8.32;;;13.80;99.90;;;;;;5107397;28;20557;-86
2022/06/17 01:33:17;;;;;;;12.82;8.50;;;13.70;99.90;;;;;;5090184;28;20275;-86
2022/06/17 01:36:10;;;;;;;15.32;8.18;;;13.80;99.90;;;;;;5108386;28;20063;-86
2022/06/17 01:38:38;;;;;;;10.05;7.70;;;13.80;99.90;;;;;;5097199;28;20530;-86
2022/06/17 01:41:04;;;;;;;11.48;7.43;;;14.40;99.90;;;;;;5089301;28;20047;-86
2022/06/17 01:43:41;;;;;;;11.60;7.03;;;13.90;99.90;;;;;;5108612;28;20051;-86
2022/06/17 01:46:13;;;;;;;10.30;6.93;;;13.90;99.90;;;;;;5107171;28;20036;-85
2022/06/17 01:48:45;;;;;;;9.43;7.15;;;14.50;99.90;;;;;;5107239;28;20124;-86
2022/06/17 01:51:13;;;;;;;8.40;7.50;;;14.60;99.90;;;;;;5107631;28;20040;-86
2022/06/17 01:53:44;;;;;;;15.07;8.10;;;14.50;99.90;;;;;;5112231;28;20040;-87
2022/06/17 01:56:14;;;;;;;13.43;9.10;;;13.90;99.90;;;;;;5113952;28;20086;-86
2022/06/17 01:58:47;;;;;;;10.63;8.05;;;13.70;99.90;;;;;;5106245;28;20053;-86
2022/06/17 02:01:15;;;;;;;10.77;7.53;;;13.70;99.90;;;;;;5107052;28;20131;-86
2022/06/17 02:03:49;;;;;;;12.52;8.10;;;13.70;99.90;;;;;;5090631;28;20036;-86
2022/06/17 02:06:30;;;;;;;10.50;7.30;;;14.00;99.90;;;;;;5106224;28;20055;-87
2022/06/17 02:08:56;;;;;;;12.27;8.98;;;13.60;99.90;;;;;;5108493;28;20059;-86
2022/06/17 02:11:22;;;;;;;12.38;7.32;;;13.70;99.90;;;;;;5105607;28;20050;-86
2022/06/17 02:13:48;;;;;;;12.18;6.95;;;13.50;99.90;;;;;;5106588;28;20077;-86
2022/06/17 02:16:14;;;;;;;10.98;8.77;;;13.60;99.90;;;;;;5089902;28;20079;-86
2022/06/17 02:18:42;;;;;;;10.90;7.68;;;13.50;99.90;;;;;;5105611;28;20130;-85
2022/06/17 02:21:18;;;;;;;13.00;8.25;;;13.50;99.90;;;;;;5090094;28;20043;-86
2022/06/17 02:23:44;;;;;;;16.00;8.35;;;13.50;99.90;;;;;;5105741;28;20525;-85
2022/06/17 02:26:12;;;;;;;8.65;6.95;;;14.20;99.90;;;;;;5106947;28;20416;-85
2022/06/17 02:28:39;;;;;;;10.80;7.32;;;13.40;99.90;;;;;;5106178;28;20048;-85
2022/06/17 02:31:08;;;;;;;12.05;7.25;;;13.40;99.90;;;;;;5106475;28;20083;-85
2022/06/17 02:33:36;;;;;;;13.38;8.23;;;13.50;99.90;;;;;;5109323;28;20062;-85
2022/06/17 02:36:28;;;;;;;9.52;7.35;;;13.30;99.90;;;;;;5094269;28;20420;-85
2022/06/17 02:38:54;;;;;;;10.77;7.38;;;13.30;99.90;;;;;;5094162;28;20136;-86
2022/06/17 02:41:20;;;;;;;7.75;6.43;;;13.20;99.90;;;;;;5110750;28;20043;-85
2022/06/17 02:43:51;;;;;;;10.65;8.32;;;13.20;99.90;;;;;;5111510;28;20094;-86
2022/06/17 02:46:34;;;;;;;12.88;8.23;;;14.40;99.90;;;;;;5111739;28;20075;-85
2022/06/17 02:49:04;;;;;;;10.68;8.30;;;13.20;99.90;;;;;;5111167;28;20044;-86
2022/06/17 02:51:36;;;;;;;12.65;8.10;;;13.20;99.90;;;;;;5094356;28;20086;-86
2022/06/17 02:54:04;;;;;;;11.25;6.97;;;13.20;99.90;;;;;;5110602;28;20409;-86
2022/06/17 02:56:34;;;;;;;9.75;7.50;;;13.10;99.90;;;;;;5111363;28;20123;-86
2022/06/17 02:59:09;;;;;;;11.15;8.02;;;13.40;99.90;;;;;;5111027;28;20072;-85
2022/06/17 03:01:37;;;;;;;12.95;8.10;;;13.10;99.90;;;;;;5110749;28;20070;-85
2022/06/17 03:04:19;;;;;;;11.23;8.55;;;14.20;99.90;;;;;;5111761;28;20524;-85
2022/06/17 03:06:47;;;;;;;9.68;7.88;;;13.10;99.90;;;;;;5092618;28;20588;-84
2022/06/17 03:09:30;;;;;;;10.45;7.68;;;13.10;99.90;;;;;;5112563;28;20044;-85
2022/06/17 03:11:58;;;;;;;;;;;13.10;99.90;;;;;;5110878;28;20484;-86
2022/06/17 03:14:29;;;;;;;11.23;8.05;;;13.20;99.90;;;;;;5110551;28;19980;-85
2022/06/17 03:16:59;;;;;;;13.00;8.88;;;13.10;99.90;;;;;;5113110;28;20051;-85
2022/06/17 03:19:31;;;;;;;15.68;10.48;;;13.10;99.90;;;;;;5111607;28;20082;-85
2022/06/17 03:21:57;;;;;;;10.82;8.73;;;13.20;99.90;;;;;;5093949;28;20092;-85
2022/06/17 03:24:28;;;;;;;12.18;8.68;;;13.20;99.90;;;;;;5110260;28;20077;-85
2022/06/17 03:27:21;;;;;;;12.32;8.32;;;14.20;99.90;;;;;;5111216;28;20044;-85
2022/06/17 03:29:49;;;;;;;8.80;7.90;;;13.30;99.90;;;;;;5112274;28;22010;-85
2022/06/17 03:32:27;;;;;;;11.93;9.10;;;13.40;99.90;;;;;;5114271;28;20051;-85
2022/06/17 03:34:55;;;;;;;10.10;7.30;;;13.50;99.90;;;;;;5099578;28;20052;-86
2022/06/17 03:37:32;;;;;;;13.60;7.78;;;13.50;99.90;;;;;;5098316;28;20099;-85
2022/06/17 03:40:06;;;;;;;11.27;8.90;;;13.60;99.90;;;;;;5118039;28;20075;-86
2022/06/17 03:42:54;;;;;;;16.98;8.93;;;13.70;99.90;;;;;;5116722;28;20059;-85
2022/06/17 03:45:32;;;;;;;10.48;7.93;;;13.80;99.90;;;;;;5116657;28;20062;-85
2022/06/17 03:48:53;;;;;;;13.27;8.25;;;13.90;99.90;;;;;;5121202;28;20456;-85
2022/06/17 03:51:24;;;;;;;12.70;7.50;;;14.00;99.90;;;;;;5068374;28;20047;-85
2022/06/17 03:53:57;;;;;;;8.93;7.13;;;14.10;99.90;;;;;;5116871;28;20086;-85
2022/06/17 03:56:27;;;;;;;10.98;7.40;;;14.10;99.90;;;;;;5117631;27;20052;-84
2022/06/17 03:58:56;;;;;;;10.55;7.40;;;14.10;99.90;;;;;;5117088;28;20108;-85
2022/06/17 04:01:36;;;;;;;10.57;6.82;;;14.20;99.90;;;;;;5118900;27;20036;-85
2022/06/17 04:04:11;;;;;;;12.05;6.25;;;14.30;99.90;;;;;;5117780;28;20062;-86
2022/06/17 04:06:41;;;;;;;9.90;6.75;;;14.40;99.90;;;;;;5117225;28;20059;-85
2022/06/17 04:09:18;;;;;;;8.77;6.53;;;14.50;99.90;;;;;;5113632;28;20125;-86
2022/06/17 04:11:49;;;;;;;9.55;5.88;;;14.60;99.90;;;;;;5113509;28;20044;-85
2022/06/17 04:14:23;;;;;;;7.15;5.47;;;14.70;99.90;;;;;;5109584;28;20112;-86
2022/06/17 04:16:57;;;;;;;9.50;5.03;;;14.80;99.90;;;;;;5108053;28;20047;-85
2022/06/17 04:19:25;;;;;;;8.55;4.88;;;14.90;99.90;;;;;;5109574;28;20059;-85
2022/06/17 04:21:55;;;;;;;8.48;4.32;;;15.00;99.90;;;;;;5108379;28;20043;-85
2022/06/17 04:24:24;;;;;;;6.38;3.72;;;15.10;99.90;;;;;;5108189;28;20058;-85
2022/06/17 04:26:59;;;;;;;6.35;3.72;;;15.30;99.90;;;;;;5108839;28;20449;-86
2022/06/17 04:29:42;;;;;;;7.35;3.35;;;15.30;99.90;;;;;;5091063;28;20054;-86
2022/06/17 04:32:15;;;;;;;;;;;15.30;99.90;;;;;;5109648;28;20048;-86
2022/06/17 04:34:41;;;;;;;4.32;2.88;;;15.40;99.90;;;;;;5108170;28;19919;-85
2022/06/17 04:37:17;;;;;;;7.13;3.17;;;15.50;99.90;;;;;;5108179;28;20065;-85
2022/06/17 04:40:00;;;;;;;5.22;3.30;;;15.50;99.90;;;;;;5091281;28;20481;-84
2022/06/17 04:42:35;;;;;;;8.18;2.88;;;15.70;99.90;;;;;;5090134;28;20138;-86
2022/06/17 04:45:02;;;;;;;3.22;2.88;;;15.70;99.90;;;;;;5108863;28;20415;-85
2022/06/17 04:47:28;;;;;;;7.53;2.63;;;15.80;99.90;;;;;;5108108;28;20039;-85
2022/06/17 04:50:01;;;;;;;4.93;2.42;;;15.90;99.90;;;;;;5091048;28;20396;-86
2022/06/17 04:52:31;;;;;;;4.43;2.15;;;15.90;99.90;;;;;;5091155;28;20055;-84
2022/06/17 04:54:59;;;;;;;7.80;2.67;;;16.00;99.90;;;;;;5107601;28;20044;-86
2022/06/17 04:57:26;;;;;;;4.35;2.70;;;16.10;99.90;;;;;;5108863;28;20044;-85
2022/06/17 04:59:52;;;;;;;4.30;2.00;;;16.10;99.90;;;;;;5107382;28;20466;-86
2022/06/17 05:02:21;;;;;;;7.60;2.33;;;16.20;99.90;;;;;;5091145;28;20126;-86
2022/06/17 05:04:49;;;;;;;3.50;1.92;;;16.30;99.90;;;;;;5107671;28;20040;-85
2022/06/17 05:07:16;;;;;;;5.93;2.30;;;16.40;99.90;;;;;;5107359;28;20511;-85
2022/06/17 05:09:55;;;;;;;5.25;2.40;;;16.30;99.90;;;;;;5107580;28;20043;-84
2022/06/17 05:12:46;;;;;;;5.65;2.40;;;16.30;99.90;;;;;;5107681;28;20065;-85
2022/06/17 05:15:18;;;;;;;6.10;2.35;;;16.30;99.90;;;;;;5109337;28;20377;-85
2022/06/17 05:17:44;;;;;;;11.63;2.88;;;16.30;99.90;;;;;;5107688;28;20139;-87
2022/06/17 05:20:17;;;;;;;5.45;2.97;;;16.30;99.90;;;;;;5090070;28;20082;-86
2022/06/17 05:22:48;;;;;;;4.15;2.38;;;16.30;99.90;;;;;;5090995;28;20047;-83
2022/06/17 05:25:27;;;;;;;8.25;3.08;;;16.40;99.90;;;;;;5107316;28;20059;-87
2022/06/17 05:27:53;;;;;;;6.22;2.42;;;16.40;99.90;;;;;;5090743;28;20039;-86
2022/06/17 05:30:19;;;;;;;4.47;2.05;;;16.40;99.90;;;;;;5106775;28;20043;-87
2022/06/17 05:32:53;;;;;;;4.75;2.53;;;16.40;99.90;;;;;;5107009;28;20131;-86
2022/06/17 05:35:21;;;;;;;4.72;3.00;;;16.50;99.90;;;;;;5107565;28;20052;-85
2022/06/17 05:37:47;;;;;;;4.38;2.53;;;16.50;99.90;;;;;;5106658;28;20043;-86
2022/06/17 05:40:13;;;;;;;6.40;3.15;;;16.60;99.90;;;;;;5090854;28;20051;-86
2022/06/17 05:42:41;;;;;;;7.45;2.88;;;16.60;99.90;;;;;;5106598;28;20112;-82
2022/06/17 05:45:08;;;;;;;5.10;2.45;;;16.70;99.90;;;;;;5090526;28;20040;-80
2022/06/17 05:47:34;;;;;;;4.78;2.40;;;16.70;99.90;;;;;;5107034;28;20408;-85
2022/06/17 05:50:00;;;;;;;4.10;2.50;;;16.80;99.90;;;;;;5072808;28;20044;-83
2022/06/17 05:52:25;;;;;;;6.85;2.80;;;16.80;99.90;;;;;;5089939;28;20455;-84
2022/06/17 05:54:59;;;;;;;7.00;3.22;;;16.90;99.90;;;;;;5107219;28;20050;-81
2022/06/17 05:57:25;;;;;;;7.47;2.65;;;17.00;99.90;;;;;;5108880;28;20161;-85
2022/06/17 05:59:51;;;;;;;5.00;3.00;;;17.00;99.90;;;;;;5108074;28;20050;-84
2022/06/17 06:02:16;;;;;;;5.05;2.72;;;17.10;99.90;;;;;;5106976;28;20039;-84
2022/06/17 06:04:42;;;;;;;9.95;3.20;;;17.10;99.90;;;;;;5107620;28;20044;-84
2022/06/17 06:07:08;;;;;;;6.47;3.05;;;17.20;99.90;;;;;;5106143;28;20070;-84
2022/06/17 06:09:33;;;;;;;5.55;2.70;;;17.30;99.90;;;;;;5089648;28;20058;-84
2022/06/17 06:11:59;;;;;;;6.15;2.85;;;17.20;99.90;;;;;;5105896;28;20050;-84
2022/06/17 06:14:25;;;;;;;6.07;2.97;;;17.30;99.90;;;;;;5090048;28;20130;-84
2022/06/17 06:16:50;;;;;;;8.07;2.75;;;17.30;99.90;;;;;;5105682;28;20040;-84
2022/06/17 06:19:16;;;;;;;7.75;2.95;;;17.30;99.90;;;;;;5106833;28;20039;-84
2022/06/17 06:21:42;;;;;;;9.68;2.58;;;18.20;99.90;;;;;;5105959;28;20054;-84
2022/06/17 06:24:07;;;;;;;8.70;3.15;;;17.40;99.90;;;;;;5089429;28;20071;-84
2022/06/17 06:26:33;;;;;;;8.20;2.53;;;17.40;99.90;;;;;;5106361;28;20058;-84
2022/06/17 06:28:59;;;;;;;6.07;3.25;;;17.50;99.90;;;;;;5106331;28;20544;-84
2022/06/17 06:31:28;;;;;;;6.63;3.13;;;17.50;99.90;;;;;;5106489;28;20059;-84
2022/06/17 06:33:54;;;;;;;10.43;2.63;;;17.60;99.90;;;;;;5106993;28;20043;-84
2022/06/17 06:36:20;;;;;;;4.65;2.90;;;17.60;99.90;;;;;;5089556;28;20035;-84
2022/06/17 06:38:46;;;;;;;8.35;3.15;;;17.70;99.90;;;;;;5088610;28;20044;-84
2022/06/17 06:41:12;;;;;;;8.57;3.25;;;17.70;99.90;;;;;;5105827;28;20044;-81
2022/06/17 06:43:39;;;;;;;5.90;2.75;;;17.80;99.90;;;;;;5088819;28;20433;-84
2022/06/17 06:46:10;;;;;;;5.38;2.38;;;17.90;99.90;;;;;;5105876;28;20071;-84
2022/06/17 06:48:36;;;;;;;8.25;3.03;;;18.00;99.90;;;;;;5107684;28;20058;-84
2022/06/17 06:51:03;;;;;;;4.40;3.10;;;18.00;99.90;;;;;;5113014;28;20039;-84
2022/06/17 06:53:34;;;;;;;;;;;18.20;99.90;;;;;;5116493;28;20208;-84
2022/06/17 06:56:05;;;;;;;5.07;2.63;;;18.40;99.90;;;;;;5116780;28;20380;-84
2022/06/17 06:58:34;;;;;;;5.72;2.97;;;18.50;99.90;;;;;;5116334;28;20047;-83
2022/06/17 07:01:02;;;;;;;9.32;2.90;;;18.60;99.90;;;;;;5116613;28;20127;-83
2022/06/17 07:03:29;;;;;;;10.07;3.22;;;19.40;99.90;;;;;;5114943;28;20595;-83
2022/06/17 07:06:01;;;;;;;6.00;2.92;;;18.90;99.90;;;;;;5119742;28;20039;-85
2022/06/17 07:08:29;;;;;;;8.48;3.25;;;19.00;99.90;;;;;;5120206;28;20051;-83
2022/06/17 07:10:59;;;;;;;5.65;3.85;;;19.10;99.90;;;;;;5119506;28;20142;-83
2022/06/17 07:13:27;;;;;;;6.95;2.53;;;19.20;99.90;;;;;;5119861;28;20147;-83
2022/06/17 07:15:54;;;;;;;3.97;2.88;;;19.20;99.90;;;;;;5119713;28;20054;-83
2022/06/17 07:18:23;;;;;;;4.85;2.58;;;19.20;99.90;;;;;;5118688;28;20052;-82
2022/06/17 07:20:53;;;;;;;6.43;2.83;;;19.30;99.90;;;;;;5117770;28;20040;-83
2022/06/17 07:23:22;;;;;;;4.72;2.90;;;19.30;99.90;;;;;;5118493;28;20054;-82
2022/06/17 07:25:52;;;;;;;4.82;2.60;;;19.30;99.90;;;;;;5117943;28;20418;-84
2022/06/17 07:28:22;;;;;;;5.88;3.08;;;19.40;99.90;;;;;;5118924;28;20040;-82
2022/06/17 07:30:50;;;;;;;3.85;2.50;;;19.50;99.90;;;;;;5118106;28;20047;-82
2022/06/17 07:33:17;;;;;;;4.32;2.40;;;19.50;99.90;;;;;;5118865;28;20059;-83
2022/06/17 07:35:45;;;;;;;4.85;2.33;;;19.60;99.90;;;;;;5117940;28;20114;-82
2022/06/17 07:41:11;;;;;;;4.35;3.10;;;19.80;99.90;;;;;;5118414;28;20040;-84
2022/06/17 07:43:37;;;;;;;3.65;2.60;;;19.90;99.90;;;;;;5117517;28;20058;-85
2022/06/17 07:46:04;;;;;;;4.57;2.55;;;20.10;99.90;;;;;;5118273;28;20056;-84
2022/06/17 07:48:30;;;;;;;7.10;2.08;;;20.20;99.90;;;;;;5119337;28;20077;-82
2022/06/17 07:50:59;;;;;;;6.55;2.70;;;20.30;99.90;;;;;;5100172;28;20097;-83
2022/06/17 07:53:30;;;;;;;5.82;3.05;;;20.50;99.90;;;;;;5116770;28;20055;-85
2022/06/17 07:56:05;;;;;;;4.95;2.92;;;20.70;99.90;;;;;;5116737;28;20050;-83
2022/06/17 07:58:31;;;;;;;12.38;3.35;;;20.80;99.90;;;;;;5118384;28;20404;-84
2022/06/17 08:00:57;;;;;;;4.85;3.10;;;20.70;99.90;;;;;;5117540;27;20035;-84
2022/06/17 08:03:34;;;;;;;4.82;2.25;;;20.90;99.90;;;;;;5116586;28;20055;-84
2022/06/17 08:06:08;;;;;;;7.70;3.00;;;20.90;99.90;;;;;;5117199;28;20048;-84
2022/06/17 08:08:34;;;;;;;4.20;2.75;;;21.10;99.90;;;;;;5115952;27;20039;-84
2022/06/17 08:11:01;;;;;;;6.28;2.75;;;21.10;99.90;;;;;;5117908;28;20054;-84
2022/06/17 08:13:28;;;;;;;6.50;3.13;;;21.30;99.90;;;;;;5117169;28;20044;-84
2022/06/17 08:15:57;;;;;;;4.53;2.90;;;21.40;99.90;;;;;;5116007;28;20048;-84
2022/06/17 08:18:23;;;;;;;7.38;2.75;;;21.40;99.60;;;;;;5097625;28;20048;-84
2022/06/17 08:20:49;;;;;;;5.50;2.63;;;21.50;99.80;;;;;;5116527;28;20103;-83
2022/06/17 08:23:15;;;;;;;5.85;2.85;;;21.80;99.80;;;;;;5116600;28;20054;-84
2022/06/17 08:25:42;;;;;;;4.35;3.17;;;21.70;99.40;;;;;;5115582;28;20094;-83
2022/06/17 08:28:10;;;;;;;4.10;2.80;;;21.80;99.00;;;;;;5116639;28;20036;-82
2022/06/17 08:30:49;;;;;;;9.23;2.67;;;21.90;98.80;;;;;;5114953;28;20099;-82
2022/06/17 08:33:15;;;;;;;4.35;3.17;;;22.00;98.80;;;;;;5117656;28;20116;-83
2022/06/17 08:35:49;;;;;;;5.10;3.20;;;22.10;98.40;;;;;;5115687;28;20068;-82
2022/06/17 08:38:36;;;;;;;4.70;3.45;;;22.20;96.90;;;;;;5116613;28;20039;-83
2022/06/17 08:41:11;;;;;;;4.80;2.72;;;22.30;96.60;;;;;;5117115;28;20052;-83
2022/06/17 08:44:14;;;;;;;5.15;2.85;;;22.40;96.40;;;;;;5097305;28;20124;-83
2022/06/17 08:47:01;;;;;;;7.22;3.33;;;22.50;95.80;;;;;;5114911;28;20114;-82
2022/06/17 08:49:48;;;;;;;5.05;2.67;;;22.50;96.30;;;;;;5115275;28;20054;-83
2022/06/17 08:52:26;;;;;;;5.68;3.28;;;22.60;96.50;;;;;;5116227;28;20483;-83
2022/06/17 08:54:51;;;;;;;6.25;3.60;;;22.60;95.90;;;;;;5115066;28;20049;-81
2022/06/17 08:57:47;;;;;;;5.00;2.70;;;22.50;95.70;;;;;;5113659;28;20487;-83
2022/06/17 09:00:46;;;;;;;5.38;2.70;;;22.40;95.90;;;;;;5096909;28;20438;-83
2022/06/17 09:03:15;;;;;;;15.23;3.03;;;22.40;95.80;;;;;;5114730;28;20066;-83
2022/06/17 09:05:40;;;;;;;9.95;3.85;;;22.40;96.90;;;;;;5116089;28;20458;-84
2022/06/17 09:08:14;;;;;;;5.47;3.60;;;22.40;96.30;;;;;;5112808;28;20092;-82
2022/06/17 09:11:16;;;;;;;7.70;3.63;;;22.40;96.00;;;;;;5112927;28;20059;-83
2022/06/17 09:13:58;;;;;;;7.43;3.08;;;22.40;95.40;;;;;;5112173;28;20040;-82
2022/06/17 09:16:41;;;;;;;5.07;3.30;;;22.50;95.20;;;;;;5112840;28;20043;-82
2022/06/17 09:19:10;;;;;;;6.25;3.13;;;22.50;95.80;;;;;;5111542;28;20573;-82
2022/06/17 09:21:53;;;;;;;5.35;3.45;;;22.60;96.10;;;;;;5110236;28;20048;-82
2022/06/17 09:24:33;;;;;;;9.95;3.45;;;22.70;95.80;;;;;;5112225;28;20058;-82
2022/06/17 09:27:05;;;;;;;8.02;3.63;;;22.60;96.10;;;;;;5110606;28;20048;-83
2022/06/17 09:29:44;;;;;;;6.63;3.10;;;22.90;96.00;;;;;;5093418;28;20055;-84
2022/06/17 09:32:31;;;;;;;7.05;3.45;;;22.90;94.90;;;;;;5110720;28;20527;-83
2022/06/17 09:35:07;;;;;;;7.68;3.17;;;22.90;94.20;;;;;;5111833;28;20069;-84
2022/06/17 09:37:39;;;;;;;6.40;2.90;;;22.90;94.40;;;;;;5112091;28;20035;-84
2022/06/17 09:40:17;;;;;;;4.70;3.13;;;22.90;94.90;;;;;;5110733;28;20077;-83
2022/06/17 09:42:49;;;;;;;4.80;2.65;;;23.20;93.60;;;;;;5111610;28;20059;-84
2022/06/17 09:45:25;;;;;;;8.95;3.60;;;23.50;91.80;;;;;;5110934;28;20062;-84
2022/06/17 09:48:00;;;;;;;6.20;3.10;;;23.80;91.60;;;;;;5112063;28;20047;-83
2022/06/17 09:50:37;;;;;;;3.75;3.03;;;24.70;90.00;;;;;;5112061;28;20051;-83
2022/06/17 09:53:16;;;;;;;6.68;3.53;;;24.20;85.20;;;;;;5112174;28;20454;-83
2022/06/17 09:56:05;;;;;;;4.63;2.60;;;24.20;88.80;;;;;;5093894;28;20044;-83
2022/06/17 09:59:05;;;;;;;5.90;3.17;;;24.30;88.40;;;;;;5112324;28;20049;-83
2022/06/17 10:01:31;;;;;;;4.28;3.08;;;24.20;85.30;;;;;;5109828;28;20496;-84
2022/06/17 10:03:57;;;;;;;4.88;3.10;;;24.80;88.50;;;;;;5109934;28;20042;-83
2022/06/17 10:06:36;;;;;;;6.65;2.83;;;23.80;88.10;;;;;;5110009;28;20135;-82
2022/06/17 10:09:40;;;;;;;3.42;2.50;;;23.70;86.70;;;;;;5108853;28;20047;-81
2022/06/17 10:12:32;;;;;;;6.45;2.85;;;23.60;87.70;;;;;;5109019;28;20051;-83
2022/06/17 10:15:13;;;;;;;4.45;2.00;;;23.60;90.10;;;;;;5111515;28;20044;-84
2022/06/17 10:21:18;;;;;;;5.70;2.60;;;23.70;90.50;;;;;;5111770;28;20442;-84
2022/06/17 10:24:08;;;;;;;3.65;2.22;;;23.70;89.50;;;;;;5110465;28;20438;-84
2022/06/17 10:27:03;;;;;;;3.90;1.92;;;23.60;88.70;;;;;;5111502;28;20081;-86
2022/06/17 10:29:59;;;;;;;3.42;2.08;;;23.50;88.30;;;;;;5110128;28;20047;-85
2022/06/17 10:32:27;;;;;;;7.18;2.15;;;23.60;88.90;;;;;;5109774;28;20035;-78
2022/06/17 10:35:01;;;;;;;6.00;2.08;;;23.60;90.10;;;;;;5109542;28;20574;-77
2022/06/17 10:37:29;;;;;;;6.07;2.33;;;23.60;89.20;;;;;;5107168;28;20488;-78
2022/06/17 10:39:56;;;;;;;8.07;2.55;;;23.60;89.90;;;;;;5108144;28;20210;-77
2022/06/17 10:42:24;;;;;;;5.47;2.35;;;23.70;89.10;;;;;;5109245;28;20143;-76
2022/06/17 10:44:53;;;;;;;3.33;1.80;;;23.80;86.00;;;;;;5110274;28;20040;-76
2022/06/17 10:47:34;;;;;;;7.03;2.28;;;23.80;86.50;;;;;;5109349;28;20047;-78
2022/06/17 10:50:09;;;;;;;3.30;1.95;;;24.00;83.90;;;;;;5109900;28;20114;-80
2022/06/17 10:52:43;;;;;;;4.65;2.20;;;24.10;83.30;;;;;;5108849;28;20517;-79
2022/06/17 10:55:22;;;;;;;5.90;2.28;;;24.40;82.30;;;;;;5090556;28;20035;-79
2022/06/17 10:58:06;;;;;;;2.88;1.80;;;24.60;77.60;;;;;;5108883;28;20047;-79
2022/06/17 11:00:34;;;;;;;5.97;2.00;;;24.70;76.60;;;;;;5108717;28;20051;-79
2022/06/17 11:03:29;;;;;;;3.35;2.05;;;24.70;77.80;;;;;;5108000;28;20047;-81
2022/06/17 11:06:15;;;;;;;7.68;2.35;;;24.70;74.50;;;;;;5107967;28;20048;-79
2022/06/17 11:09:02;;;;;;;5.55;2.17;;;24.70;77.80;;;;;;5108484;28;20043;-79
2022/06/17 11:12:04;;;;;;;2.58;2.05;;;24.90;75.40;;;;;;5109096;28;20508;-79
2022/06/17 11:14:38;;;;;;;5.37;2.00;;;25.00;72.10;;;;;;5107425;28;20074;-81
2022/06/17 11:17:17;;;;;;;3.83;2.72;;;25.10;75.00;;;;;;5108154;28;20062;-79
2022/06/17 11:19:44;;;;;;;6.10;2.50;;;25.20;74.70;;;;;;5108497;28;20088;-78
2022/06/17 11:22:40;;;;;;;5.20;2.78;;;25.30;74.70;;;;;;5107657;28;20052;-78
2022/06/17 11:25:25;;;;;;;3.83;2.03;;;25.40;73.90;;;;;;5069591;28;20087;-76
2022/06/17 11:27:56;;;;;;;5.55;3.20;;;25.60;75.60;;;;;;5109380;28;20095;-77
2022/06/17 11:30:27;;;;;;;6.22;2.80;;;25.70;75.50;;;;;;5092264;28;20044;-77
2022/06/17 11:32:55;;;;;;;5.65;3.00;;;25.80;75.90;;;;;;5109586;28;20847;-78
2022/06/17 11:35:32;;;;;;;6.28;2.55;;;25.80;74.20;;;;;;5109400;28;20073;-75
2022/06/17 11:37:58;;;;;;;3.72;2.50;;;25.80;74.00;;;;;;5107759;28;20079;-78
2022/06/17 11:40:27;;;;;;;5.13;2.90;;;25.80;74.70;;;;;;5109127;28;20392;-77
2022/06/17 11:42:53;;;;;;;4.53;2.95;;;25.90;74.30;;;;;;5106354;28;20044;-77
2022/06/17 11:45:30;;;;;;;4.72;3.15;;;25.90;75.10;;;;;;5105629;28;20062;-77
2022/06/17 11:48:01;;;;;;;5.25;3.05;;;26.10;73.50;;;;;;5106964;28;20044;-77
2022/06/17 11:50:36;;;;;;;4.55;3.03;;;26.30;69.20;;;;;;5105880;28;20043;-77
2022/06/17 11:53:17;;;;;;;5.30;3.33;;;26.40;70.50;;;;;;5109174;28;20047;-77
2022/06/17 11:55:45;;;;;;;4.85;2.65;;;26.60;69.80;;;;;;5109200;28;20047;-78
2022/06/17 11:58:13;;;;;;;4.35;2.85;;;26.80;70.50;;;;;;5109262;28;20052;-78
2022/06/17 12:00:46;;;;;;;6.25;2.13;;;27.10;70.40;;;;;;5109027;28;20484;-78
2022/06/17 12:03:15;;;;;;;6.38;3.10;;;27.10;70.20;;;;;;5108897;28;20542;-79
2022/06/17 12:05:42;;;;;;;3.78;2.53;;;27.30;68.30;;;;;;5108878;28;20048;-79
2022/06/17 12:08:20;;;;;;;7.93;2.55;;;27.30;67.40;;;;;;5092095;28;20119;-79
2022/06/17 12:10:52;;;;;;;5.63;2.90;;;27.40;65.70;;;;;;5110317;28;20043;-78
2022/06/17 12:13:38;;;;;;;6.18;3.17;;;27.30;66.70;;;;;;5108363;28;20117;-80
2022/06/17 12:16:14;;;;;;;3.00;2.30;;;27.30;66.00;;;;;;5108774;28;20055;-83
2022/06/17 12:18:55;;;;;;;5.32;3.25;;;27.30;65.10;;;;;;5111128;28;20035;-83
2022/06/17 12:21:46;;;;;;;5.15;2.63;;;27.40;65.80;;;;;;5111627;28;20057;-82
2022/06/17 12:24:45;;;;;;;4.97;2.47;;;27.50;65.10;;;;;;5113556;28;20100;-83
2022/06/17 12:27:26;;;;;;;4.63;2.65;;;27.70;63.40;;;;;;5112847;28;20073;-83
2022/06/17 12:30:04;;;;;;;4.10;2.45;;;27.90;65.80;;;;;;5113533;28;20096;-83
2022/06/17 12:32:33;;;;;;;3.55;2.40;;;27.90;63.10;;;;;;5116034;28;20040;-83
2022/06/17 12:35:21;;;;;;;7.10;2.78;;;27.90;61.90;;;;;;5116005;28;20547;-83
2022/06/17 12:37:56;;;;;;;2.83;2.05;;;27.90;59.70;;;;;;5116340;28;20087;-85
2022/06/17 12:40:36;;;;;;;5.13;2.17;;;27.90;58.90;;;;;;5115795;28;20088;-82
2022/06/17 12:43:31;;;;;;;3.65;2.08;;;27.90;57.70;;;;;;5097035;28;20488;-83
2022/06/17 12:46:01;;;;;;;4.20;1.83;;;27.80;58.10;;;;;;5092999;28;20095;-82
2022/06/17 12:48:54;;;;;;;4.20;1.80;;;27.80;57.90;;;;;;5114494;28;20048;-82
2022/06/17 12:54:53;;;;;;;4.85;2.47;;;27.90;55.90;;;;;;5114232;28;19924;-82
2022/06/17 12:57:49;;;;;;;2.85;1.55;;;27.70;57.60;;;;;;5058007;28;20124;-83
2022/06/17 13:00:46;;;;;;;7.13;2.17;;;27.60;55.50;;;;;;5054583;28;20074;-83
2022/06/17 13:03:34;;;;;;;4.07;1.77;;;27.50;58.60;;;;;;5112823;28;20070;-83
2022/06/17 13:06:21;;;;;;;3.67;1.92;;;27.40;56.10;;;;;;5113648;28;20051;-82
2022/06/17 13:09:07;;;;;;;7.00;2.50;;;27.30;57.90;;;;;;5096591;28;20073;-82
2022/06/17 13:11:50;;;;;;;2.90;2.50;;;27.10;57.30;;;;;;5096848;28;20039;-83
2022/06/17 13:14:27;;;;;;;4.80;2.92;;;26.90;58.20;;;;;;5096735;28;20051;-82
2022/06/17 13:17:04;;;;;;;4.90;2.28;;;26.70;58.80;;;;;;5115216;28;20040;-82
2022/06/17 13:19:56;;;;;;;5.03;2.60;;;26.60;59.60;;;;;;5097302;28;20113;-81
2022/06/17 13:22:54;;;;;;;5.38;2.63;;;26.50;60.40;;;;;;5105992;28;20043;-83
2022/06/17 13:25:29;;;;;;;3.40;2.03;;;26.40;61.00;;;;;;5115549;28;20522;-84
2022/06/17 13:28:05;;;;;;;5.78;2.60;;;26.40;61.50;;;;;;5098799;28;20146;-83
2022/06/17 13:30:40;;;;;;;5.15;2.10;;;26.50;61.90;;;;;;5114984;28;20092;-83